Latest Coastal Weather Observations for Lombadina

IDW60701

Issued at 4:05 pm WST Sunday 31 August 2014 (issued every 10 minutes, with the page automatically refreshed every 10 minutes)

About coastal observations | Map of coastal stations | Coastal observations for WA | Marine services | Other Formats
Station Details ID: 503016 Name: LOMBADINA AIRSTRIP Lat: -16.52 Lon: 122.92 Height: 42.0 m
Data from the previous 72 hours. | See also: Recent months for locations in Western Australia
Date/Time
WST
Temp

°C
Wind Pressure Rain
since 9am
mm
Weather Cloud Vis
km
Sea
Height
m
Swell
Dir
 
Speed
knots
Gust
knots
hPa Trend Height
m
Period
s
Dir
31/04:00pm 26.7 NW 5 7 1012.4 - 0.0 - - 10 - - - -
31/03:30pm 28.2 NW 4 6 1012.3 - 0.0 - - 10 - - - -
31/03:00pm 28.5 WNW 5 7 1012.4 - 0.0 - - 10 - - - -
31/02:30pm 28.2 WNW 5 7 1012.5 - 0.0 - - 10 - - - -
31/02:00pm 28.9 WNW 5 7 1012.7 - 0.0 - - 10 - - - -
31/01:30pm 28.6 NNW 6 8 1013.0 - 0.0 - - 10 - - - -
31/01:00pm 28.2 NW 5 9 1013.4 - 0.0 - - 10 - - - -
31/12:30pm 29.4 NW 5 11 1013.9 - 0.0 - - 10 - - - -
31/12:00pm 29.2 SE 4 7 1014.2 - 0.0 - - 10 - - - -
31/11:30am 29.5 E 5 8 1014.5 - 0.0 - - 10 - - - -
31/11:00am 28.1 E 3 6 1014.8 - 0.0 - - 10 - - - -
31/10:30am 27.7 ENE 4 6 1015.3 - 0.0 - - 10 - - - -
31/10:00am 26.5 E 3 7 1015.6 - 0.0 - - 10 - - - -
31/09:30am 26.2 E 4 7 1015.8 - 0.0 - - 10 - - - -
31/09:00am 25.7 E 4 7 1015.7 - 0.0 - - 10 - - - -
31/08:30am 25.1 E 3 5 1015.6 - 0.0 - - 10 - - - -
31/08:00am 23.9 ESE 2 4 1015.5 - 0.0 - - 10 - - - -
31/07:30am 22.8 E 2 3 1015.4 - 0.0 - - 10 - - - -
31/07:00am 17.9 E 2 3 1015.1 - 0.0 - - 10 - - - -
31/06:30am 14.6 E 1 3 1014.9 - 0.0 - - 10 - - - -
31/06:00am 12.7 ENE 2 3 1014.4 - 0.0 - - 10 - - - -
31/05:30am 13.1 NE 3 5 1014.3 - 0.0 - - 10 - - - -
31/05:00am 12.2 ENE 2 4 1013.8 - 0.0 - - 10 - - - -
31/04:30am 12.8 SE 2 4 1013.7 - 0.0 - - 10 - - - -
31/04:00am 13.6 CALM 0 1 1013.6 - 0.0 - - 10 - - - -
31/03:30am 14.5 SW 2 3 1013.5 - 0.0 - - 10 - - - -
31/03:00am 14.5 SW 2 4 1013.4 - 0.0 - - 10 - - - -
31/02:30am 14.8 WSW 2 4 1013.3 - 0.0 - - 10 - - - -
31/02:00am 15.4 SW 2 4 1013.3 - 0.0 - - 10 - - - -
31/01:30am 15.7 SW 3 4 1013.4 - 0.0 - - 10 - - - -
31/01:00am 16.7 SW 3 5 1013.7 - 0.0 - - 10 - - - -
31/12:30am 17.0 SSW 3 4 1013.8 - 0.0 - - 10 - - - -
31/12:00am 17.5 SSW 3 5 1014.0 - 0.0 - - 10 - - - -
 
Date/Time
WST
Temp

°C
Wind Pressure Rain
since 9am
mm
Weather Cloud Vis
km
Sea
Height
m
Swell
Dir
 
Speed
knots
Gust
knots
hPa Trend Height
m
Period
s
Dir
30/11:30pm 18.0 SW 4 6 1014.1 - 0.0 - - 10 - - - -
30/11:00pm 18.1 SSW 4 6 1014.3 - 0.0 - - 10 - - - -
30/10:30pm 18.2 SW 4 6 1014.3 - 0.0 - - 10 - - - -
30/10:00pm 17.7 SW 3 6 1014.4 - 0.0 - - 10 - - - -
30/09:30pm 17.3 SW 3 5 1014.6 - 0.0 - - 10 - - - -
30/09:00pm 17.3 W 2 3 1014.7 - 0.0 - - 10 - - - -
30/08:30pm 18.2 WNW 2 3 1014.7 - 0.0 - - 10 - - - -
30/08:00pm 19.1 WNW 2 3 1014.5 - 0.0 - - 10 - - - -
30/07:30pm 18.4 W 2 3 1014.3 - 0.0 - - 10 - - - -
30/07:00pm 19.3 W 2 3 1014.0 - 0.0 - - 10 - - - -
30/06:30pm 20.7 W 3 4 1013.7 - 0.0 - - 10 - - - -
30/06:00pm 22.4 NW 3 5 1013.6 - 0.0 - - 10 - - - -
30/05:30pm 23.4 WNW 3 5 1013.5 - 0.0 - - 10 - - - -
30/05:00pm 25.6 WNW 2 4 1013.5 - 0.0 - - 10 - - - -
30/04:30pm 27.2 NW 4 6 1013.5 - 0.0 - - 10 - - - -
30/04:00pm 28.4 NW 4 8 1013.4 - 0.0 - - 10 - - - -
30/03:30pm 29.1 NNW 5 9 1013.2 - 0.0 - - 10 - - - -
30/03:00pm 29.9 NNW 7 10 1013.2 - 0.0 - - 10 - - - -
30/02:30pm 30.3 WNW 5 9 1013.1 - 0.0 - - 10 - - - -
30/02:00pm 30.0 WNW 5 9 1013.3 - 0.0 - - 10 - - - -
30/01:30pm 29.4 N 5 15 1013.6 - 0.0 - - 10 - - - -
30/01:00pm 29.0 E 5 9 1014.1 - 0.0 - - 10 - - - -
30/12:30pm 28.4 E 6 9 1014.5 - 0.0 - - 10 - - - -
30/12:00pm 28.0 E 7 10 1014.9 - 0.0 - - 10 - - - -
30/11:30am 27.4 ESE 5 8 1015.2 - 0.0 - - 10 - - - -
30/11:00am 26.7 ESE 7 11 1015.6 - 0.0 - - 10 - - - -
30/10:30am 26.2 ESE 6 11 1016.0 - 0.0 - - 10 - - - -
30/10:00am 25.5 ESE 8 14 1016.4 - 0.0 - - 10 - - - -
30/09:30am 25.4 ESE 7 14 1016.7 - 0.0 - - 10 - - - -
30/09:00am 24.7 ESE 8 12 1016.8 - 0.0 - - 10 - - - -
30/08:30am 24.4 E 6 11 1016.7 - 0.0 - - 10 - - - -
30/08:00am 23.3 ESE 4 7 1016.5 - 0.0 - - 10 - - - -
30/07:30am 22.3 E 3 6 1016.3 - 0.0 - - 10 - - - -
30/07:00am 18.2 E 3 4 1015.9 - 0.0 - - 10 - - - -
30/06:30am 14.4 E 4 4 1015.7 - 0.0 - - 10 - - - -
30/06:00am 13.1 ESE 1 3 1015.3 - 0.0 - - 10 - - - -
30/05:30am 12.2 SE 3 4 1015.2 - 0.0 - - 10 - - - -
30/05:00am 12.7 CALM 0 0 1014.9 - 0.0 - - 10 - - - -
30/04:30am 13.3 CALM 0 1 1014.6 - 0.0 - - 10 - - - -
30/04:00am 14.1 W 2 3 1014.5 - 0.0 - - 10 - - - -
30/03:30am 15.0 W 2 3 1014.6 - 0.0 - - 10 - - - -
30/03:00am 15.2 NNW 1 2 1014.5 - 0.0 - - 10 - - - -
30/02:30am 17.0 W 2 4 1014.4 - 0.0 - - 10 - - - -
30/02:00am 17.9 SSW 3 5 1014.5 - 0.0 - - 10 - - - -
30/01:30am 18.2 SSW 3 6 1014.6 - 0.0 - - 10 - - - -
30/01:00am 18.5 SSW 4 7 1014.7 - 0.0 - - 10 - - - -
30/12:30am 18.4 SSW 4 7 1015.0 - 0.0 - - 10 - - - -
30/12:00am 18.5 SSW 4 7 1015.4 - 0.0 - - 10 - - - -
 
Date/Time
WST
Temp

°C
Wind Pressure Rain
since 9am
mm
Weather Cloud Vis
km
Sea
Height
m
Swell
Dir
 
Speed
knots
Gust
knots
hPa Trend Height
m
Period
s
Dir
29/11:30pm 18.5 SSW 4 7 1015.7 - 0.0 - - 10 - - - -
29/11:00pm 18.3 SW 4 8 1015.8 - 0.0 - - 10 - - - -
29/10:30pm 18.2 SW 4 7 1016.0 - 0.0 - - 10 - - - -
29/10:00pm 18.1 SW 4 6 1015.9 - 0.0 - - 10 - - - -
29/09:30pm 17.2 W 2 3 1015.7 - 0.0 - - 10 - - - -
29/09:00pm 17.5 WNW 1 3 1015.8 - 0.0 - - 10 - - - -
29/08:30pm 17.7 WSW 2 3 1015.8 - 0.0 - - 10 - - - -
29/08:00pm 18.2 WSW 2 3 1015.4 - 0.0 - - 10 - - - -
29/07:30pm 18.7 WSW 2 3 1015.2 - 0.0 - - 10 - - - -
29/07:00pm 19.5 W 2 3 1014.8 - 0.0 - - 10 - - - -
29/06:30pm 20.2 W 2 3 1014.4 - 0.0 - - 10 - - - -
29/06:00pm 21.8 WNW 2 4 1014.2 - 0.0 - - 10 - - - -
29/05:30pm 23.2 W 2 4 1014.1 - 0.0 - - 10 - - - -
29/05:00pm 25.1 WNW 3 5 1014.0 - 0.0 - - 10 - - - -
29/04:30pm 25.9 WNW 4 7 1013.9 - 0.0 - - 10 - - - -
29/04:00pm 26.6 NW 5 8 1013.8 - 0.0 - - 10 - - - -
29/03:30pm 27.1 NW 6 9 1013.7 - 0.0 - - 10 - - - -
29/03:00pm 28.1 NNW 5 8 1013.7 - 0.0 - - 10 - - - -
29/02:30pm 29.5 N 8 13 1013.7 - 0.0 - - 10 - - - -
29/02:00pm 29.5 N 8 12 1014.0 - 0.0 - - 10 - - - -
29/01:30pm 29.3 NNE 8 13 1014.3 - 0.0 - - 10 - - - -
29/01:00pm 29.9 NE 7 12 1014.7 - 0.0 - - 10 - - - -
29/12:30pm 28.9 ENE 7 15 1015.1 - 0.0 - - 10 - - - -
29/12:00pm 27.5 E 7 13 1015.6 - 0.0 - - 10 - - - -
29/11:30am 26.9 E 8 12 1016.0 - 0.0 - - 10 - - - -
29/11:00am 26.9 E 8 12 1016.4 - 0.0 - - 10 - - - -
29/10:30am 25.9 E 7 13 1016.6 - 0.0 - - 10 - - - -
29/10:00am 25.8 E 8 13 1016.7 - 0.0 - - 10 - - - -
29/09:30am 25.0 ESE 8 14 1016.9 - 0.0 - - 10 - - - -
29/09:00am 24.2 ESE 9 14 1016.9 - 0.0 - - 10 - - - -
29/08:30am 22.8 SE 9 14 1016.9 - 0.0 - - 10 - - - -
29/08:00am 22.6 ESE 7 13 1016.8 - 0.0 - - 10 - - - -
29/07:30am 21.7 ESE 5 10 1016.6 - 0.0 - - 10 - - - -
29/07:00am 20.4 SE 5 10 1016.3 - 0.0 - - 10 - - - -
29/06:30am 20.3 SE 4 9 1015.7 - 0.0 - - 10 - - - -
29/06:00am 20.8 S 6 9 1015.1 - 0.0 - - 10 - - - -
29/05:30am 21.1 S 5 9 1014.9 - 0.0 - - 10 - - - -
29/05:00am 20.8 S 5 10 1014.6 - 0.0 - - 10 - - - -
29/04:30am 20.5 S 4 8 1014.5 - 0.0 - - 10 - - - -
29/04:00am 20.5 S 5 8 1014.5 - 0.0 - - 10 - - - -
29/03:30am 20.8 S 5 9 1014.5 - 0.0 - - 10 - - - -
29/03:00am 20.3 S 5 8 1014.3 - 0.0 - - 10 - - - -
29/02:30am 20.0 S 4 9 1014.6 - 0.0 - - 10 - - - -
29/02:00am 20.2 S 4 8 1014.7 - 0.0 - - 10 - - - -
29/01:30am 19.6 S 3 6 1014.8 - 0.0 - - 10 - - - -
29/01:00am 20.2 SSW 4 6 1015.0 - 0.0 - - 10 - - - -
29/12:30am 20.9 SSW 4 7 1015.2 - 0.0 - - 10 - - - -
29/12:00am 19.9 SSW 4 7 1015.3 - 0.0 - - 10 - - - -
 
Date/Time
WST
Temp

°C
Wind Pressure Rain
since 9am
mm
Weather Cloud Vis
km
Sea
Height
m
Swell
Dir
 
Speed
knots
Gust
knots
hPa Trend Height
m
Period
s
Dir
28/11:30pm 18.6 SSW 4 7 1015.4 - 0.0 - - 10 - - - -
28/11:00pm 17.4 SSW 3 5 1015.5 - 0.0 - - 10 - - - -
28/10:30pm 18.2 SSW 3 5 1015.5 - 0.0 - - 10 - - - -
28/10:00pm 19.1 SSW 4 6 1015.6 - 0.0 - - 10 - - - -
28/09:30pm 17.7 SSW 3 6 1015.6 - 0.0 - - 10 - - - -
28/09:00pm 17.7 SW 3 6 1015.6 - 0.0 - - 10 - - - -
28/08:30pm 18.9 SW 4 6 1015.5 - 0.0 - - 10 - - - -
28/08:00pm 18.2 WSW 2 3 1015.2 - 0.0 - - 10 - - - -
28/07:30pm 18.6 SW 3 4 1015.0 - 0.0 - - 10 - - - -
28/07:00pm 19.0 W 2 3 1014.5 - 0.0 - - 10 - - - -
28/06:30pm 20.6 WNW 2 3 1014.2 - 0.0 - - 10 - - - -
28/06:00pm 21.2 W 2 3 1014.1 - 0.0 - - 10 - - - -
28/05:30pm 24.0 NW 1 2 1013.9 - 0.0 - - 10 - - - -
28/05:00pm 26.7 WNW 2 4 1013.7 - 0.0 - - 10 - - - -
28/04:30pm 27.4 NW 3 5 1013.5 - 0.0 - - 10 - - - -

Other Formats:

Comma delimited format used in spreadsheet applications
http://www.bom.gov.au/fwo/IDW60701/IDW60701.99206.axf

JavaScript Object Notation format (JSON) in row-major order
http://www.bom.gov.au/fwo/IDW60701/IDW60701.99206.json